sensor_id;sensor_type;location;lat;lon;timestamp;P1;durP1;ratioP1;P2;durP2;ratioP2
75437;SDS011;64015;49.392;15.582;2023-12-28T00:14:10;18.98;;;7.53;;
75437;SDS011;64015;49.392;15.582;2023-12-28T00:29:31;23.98;;;8.43;;
75437;SDS011;64015;49.392;15.582;2023-12-28T00:38:32;19.95;;;8.05;;
75437;SDS011;64015;49.392;15.582;2023-12-28T00:47:52;19.65;;;8.18;;
75437;SDS011;64015;49.392;15.582;2023-12-28T01:09:43;25.30;;;8.50;;
75437;SDS011;64015;49.392;15.582;2023-12-28T01:12:09;31.55;;;10.27;;
75437;SDS011;64015;49.392;15.582;2023-12-28T01:14:41;27.90;;;10.23;;
75437;SDS011;64015;49.392;15.582;2023-12-28T01:17:12;30.00;;;9.35;;
75437;SDS011;64015;49.392;15.582;2023-12-28T01:19:58;34.58;;;9.93;;
75437;SDS011;64015;49.392;15.582;2023-12-28T01:25:56;31.38;;;10.13;;
75437;SDS011;64015;49.392;15.582;2023-12-28T01:31:13;25.90;;;9.30;;
75437;SDS011;64015;49.392;15.582;2023-12-28T01:33:39;25.70;;;9.73;;
75437;SDS011;64015;49.392;15.582;2023-12-28T01:36:17;26.23;;;9.48;;
75437;SDS011;64015;49.392;15.582;2023-12-28T01:38:43;25.30;;;8.88;;
75437;SDS011;64015;49.392;15.582;2023-12-28T01:41:10;21.10;;;8.75;;
75437;SDS011;64015;49.392;15.582;2023-12-28T01:43:38;20.05;;;8.57;;
75437;SDS011;64015;49.392;15.582;2023-12-28T01:46:05;18.88;;;7.90;;
75437;SDS011;64015;49.392;15.582;2023-12-28T01:58:13;17.65;;;7.10;;
75437;SDS011;64015;49.392;15.582;2023-12-28T02:00:58;21.75;;;7.00;;
75437;SDS011;64015;49.392;15.582;2023-12-28T02:10:29;21.08;;;7.65;;
75437;SDS011;64015;49.392;15.582;2023-12-28T02:18:56;19.42;;;7.82;;
75437;SDS011;64015;49.392;15.582;2023-12-28T02:21:26;22.95;;;6.78;;
75437;SDS011;64015;49.392;15.582;2023-12-28T02:23:55;17.25;;;7.57;;
75437;SDS011;64015;49.392;15.582;2023-12-28T02:26:22;17.33;;;6.90;;
75437;SDS011;64015;49.392;15.582;2023-12-28T02:28:50;21.73;;;8.13;;
75437;SDS011;64015;49.392;15.582;2023-12-28T02:31:21;20.15;;;7.45;;
75437;SDS011;64015;49.392;15.582;2023-12-28T02:34:16;17.35;;;7.10;;
75437;SDS011;64015;49.392;15.582;2023-12-28T02:37:23;14.88;;;6.20;;
75437;SDS011;64015;49.392;15.582;2023-12-28T02:39:51;17.38;;;7.63;;
75437;SDS011;64015;49.392;15.582;2023-12-28T02:42:19;17.75;;;7.55;;
75437;SDS011;64015;49.392;15.582;2023-12-28T02:44:51;16.98;;;7.82;;
75437;SDS011;64015;49.392;15.582;2023-12-28T02:47:19;17.95;;;7.45;;
75437;SDS011;64015;49.392;15.582;2023-12-28T02:49:45;15.73;;;7.32;;
75437;SDS011;64015;49.392;15.582;2023-12-28T02:55:45;15.35;;;6.80;;
75437;SDS011;64015;49.392;15.582;2023-12-28T02:58:11;20.48;;;7.22;;
75437;SDS011;64015;49.392;15.582;2023-12-28T03:00:37;18.08;;;7.35;;
75437;SDS011;64015;49.392;15.582;2023-12-28T03:03:08;20.98;;;8.63;;
75437;SDS011;64015;49.392;15.582;2023-12-28T03:05:34;21.98;;;8.38;;
75437;SDS011;64015;49.392;15.582;2023-12-28T03:08:07;19.98;;;8.15;;
75437;SDS011;64015;49.392;15.582;2023-12-28T03:10:33;19.77;;;8.95;;
75437;SDS011;64015;49.392;15.582;2023-12-28T03:13:05;18.00;;;8.18;;
75437;SDS011;64015;49.392;15.582;2023-12-28T03:15:32;25.23;;;8.43;;
75437;SDS011;64015;49.392;15.582;2023-12-28T03:18:04;18.60;;;7.93;;
75437;SDS011;64015;49.392;15.582;2023-12-28T03:20:33;16.77;;;7.38;;
75437;SDS011;64015;49.392;15.582;2023-12-28T03:23:22;15.27;;;7.40;;
75437;SDS011;64015;49.392;15.582;2023-12-28T03:26:14;17.48;;;7.95;;
75437;SDS011;64015;49.392;15.582;2023-12-28T03:28:52;14.55;;;6.70;;
75437;SDS011;64015;49.392;15.582;2023-12-28T03:31:21;18.73;;;7.43;;
75437;SDS011;64015;49.392;15.582;2023-12-28T03:33:46;18.98;;;7.68;;
75437;SDS011;64015;49.392;15.582;2023-12-28T03:36:19;15.60;;;7.25;;
75437;SDS011;64015;49.392;15.582;2023-12-28T03:38:45;16.27;;;7.45;;
75437;SDS011;64015;49.392;15.582;2023-12-28T03:41:17;17.08;;;6.88;;
75437;SDS011;64015;49.392;15.582;2023-12-28T03:43:46;15.95;;;6.82;;
75437;SDS011;64015;49.392;15.582;2023-12-28T03:46:13;17.02;;;6.65;;
75437;SDS011;64015;49.392;15.582;2023-12-28T03:48:42;16.40;;;6.07;;
75437;SDS011;64015;49.392;15.582;2023-12-28T03:51:08;18.75;;;7.43;;
75437;SDS011;64015;49.392;15.582;2023-12-28T03:53:56;16.30;;;6.55;;
75437;SDS011;64015;49.392;15.582;2023-12-28T03:56:37;17.48;;;6.47;;
75437;SDS011;64015;49.392;15.582;2023-12-28T03:59:05;14.05;;;6.68;;
75437;SDS011;64015;49.392;15.582;2023-12-28T04:01:32;15.88;;;6.88;;
75437;SDS011;64015;49.392;15.582;2023-12-28T04:04:07;13.27;;;6.10;;
75437;SDS011;64015;49.392;15.582;2023-12-28T04:06:34;14.98;;;6.97;;
75437;SDS011;64015;49.392;15.582;2023-12-28T04:09:00;18.85;;;7.45;;
75437;SDS011;64015;49.392;15.582;2023-12-28T04:11:25;15.52;;;6.95;;
75437;SDS011;64015;49.392;15.582;2023-12-28T04:13:51;17.40;;;6.95;;
75437;SDS011;64015;49.392;15.582;2023-12-28T04:16:17;16.23;;;6.60;;
75437;SDS011;64015;49.392;15.582;2023-12-28T04:18:43;12.80;;;5.65;;
75437;SDS011;64015;49.392;15.582;2023-12-28T04:21:09;15.63;;;6.03;;
75437;SDS011;64015;49.392;15.582;2023-12-28T04:26:08;10.85;;;4.85;;
75437;SDS011;64015;49.392;15.582;2023-12-28T04:28:34;12.82;;;5.25;;
75437;SDS011;64015;49.392;15.582;2023-12-28T04:31:04;17.20;;;6.07;;
75437;SDS011;64015;49.392;15.582;2023-12-28T04:33:40;11.93;;;5.93;;
75437;SDS011;64015;49.392;15.582;2023-12-28T04:36:26;12.32;;;5.63;;
75437;SDS011;64015;49.392;15.582;2023-12-28T04:38:52;12.82;;;6.43;;
75437;SDS011;64015;49.392;15.582;2023-12-28T04:41:19;16.83;;;7.20;;
75437;SDS011;64015;49.392;15.582;2023-12-28T04:43:54;16.88;;;6.70;;
75437;SDS011;64015;49.392;15.582;2023-12-28T04:46:23;13.80;;;6.63;;
75437;SDS011;64015;49.392;15.582;2023-12-28T04:48:49;15.40;;;6.57;;
75437;SDS011;64015;49.392;15.582;2023-12-28T04:51:14;13.23;;;5.47;;
75437;SDS011;64015;49.392;15.582;2023-12-28T04:53:41;14.85;;;6.90;;
75437;SDS011;64015;49.392;15.582;2023-12-28T04:56:07;14.10;;;6.35;;
75437;SDS011;64015;49.392;15.582;2023-12-28T04:58:39;17.35;;;6.53;;
75437;SDS011;64015;49.392;15.582;2023-12-28T05:01:08;15.27;;;6.38;;
75437;SDS011;64015;49.392;15.582;2023-12-28T05:03:34;15.30;;;6.82;;
75437;SDS011;64015;49.392;15.582;2023-12-28T05:06:07;14.80;;;6.78;;
75437;SDS011;64015;49.392;15.582;2023-12-28T05:08:45;13.25;;;5.80;;
75437;SDS011;64015;49.392;15.582;2023-12-28T05:11:14;15.05;;;6.22;;
75437;SDS011;64015;49.392;15.582;2023-12-28T05:13:49;13.38;;;6.18;;
75437;SDS011;64015;49.392;15.582;2023-12-28T05:16:18;13.95;;;5.97;;
75437;SDS011;64015;49.392;15.582;2023-12-28T05:18:44;17.27;;;5.97;;
75437;SDS011;64015;49.392;15.582;2023-12-28T05:21:12;12.65;;;5.45;;
75437;SDS011;64015;49.392;15.582;2023-12-28T05:23:39;16.90;;;6.65;;
75437;SDS011;64015;49.392;15.582;2023-12-28T05:26:07;14.20;;;5.88;;
75437;SDS011;64015;49.392;15.582;2023-12-28T05:28:33;14.55;;;6.38;;
75437;SDS011;64015;49.392;15.582;2023-12-28T05:30:59;12.23;;;5.40;;
75437;SDS011;64015;49.392;15.582;2023-12-28T05:33:25;11.93;;;5.13;;
75437;SDS011;64015;49.392;15.582;2023-12-28T05:35:51;10.43;;;5.28;;
75437;SDS011;64015;49.392;15.582;2023-12-28T05:46:01;9.20;;;4.18;;
75437;SDS011;64015;49.392;15.582;2023-12-28T05:48:47;14.73;;;5.55;;
75437;SDS011;64015;49.392;15.582;2023-12-28T05:51:15;11.90;;;5.10;;
75437;SDS011;64015;49.392;15.582;2023-12-28T05:56:42;11.32;;;5.07;;
75437;SDS011;64015;49.392;15.582;2023-12-28T05:59:20;15.07;;;7.03;;
75437;SDS011;64015;49.392;15.582;2023-12-28T06:01:47;10.95;;;4.43;;
75437;SDS011;64015;49.392;15.582;2023-12-28T06:04:13;11.80;;;4.38;;
75437;SDS011;64015;49.392;15.582;2023-12-28T06:06:39;9.20;;;4.32;;
75437;SDS011;64015;49.392;15.582;2023-12-28T06:09:07;11.95;;;5.18;;
75437;SDS011;64015;49.392;15.582;2023-12-28T06:11:39;10.30;;;5.07;;
75437;SDS011;64015;49.392;15.582;2023-12-28T06:14:16;11.15;;;5.13;;
75437;SDS011;64015;49.392;15.582;2023-12-28T06:26:46;8.82;;;4.10;;
75437;SDS011;64015;49.392;15.582;2023-12-28T06:29:21;11.30;;;5.28;;
75437;SDS011;64015;49.392;15.582;2023-12-28T06:31:59;10.82;;;4.90;;
75437;SDS011;64015;49.392;15.582;2023-12-28T06:37:17;9.93;;;4.78;;
75437;SDS011;64015;49.392;15.582;2023-12-28T06:40:10;10.40;;;4.47;;
75437;SDS011;64015;49.392;15.582;2023-12-28T06:42:48;12.75;;;4.70;;
75437;SDS011;64015;49.392;15.582;2023-12-28T06:45:14;10.85;;;5.55;;
75437;SDS011;64015;49.392;15.582;2023-12-28T06:51:24;12.80;;;5.40;;
75437;SDS011;64015;49.392;15.582;2023-12-28T06:53:53;10.10;;;4.78;;
75437;SDS011;64015;49.392;15.582;2023-12-28T06:56:31;13.05;;;5.63;;
75437;SDS011;64015;49.392;15.582;2023-12-28T06:59:05;12.95;;;5.88;;
75437;SDS011;64015;49.392;15.582;2023-12-28T07:01:54;13.23;;;6.32;;
75437;SDS011;64015;49.392;15.582;2023-12-28T07:04:33;19.90;;;8.05;;
75437;SDS011;64015;49.392;15.582;2023-12-28T07:07:09;16.85;;;7.88;;
75437;SDS011;64015;49.392;15.582;2023-12-28T07:09:52;18.70;;;7.95;;
75437;SDS011;64015;49.392;15.582;2023-12-28T07:12:24;16.63;;;7.40;;
75437;SDS011;64015;49.392;15.582;2023-12-28T07:14:53;16.35;;;6.97;;
75437;SDS011;64015;49.392;15.582;2023-12-28T07:17:48;16.92;;;6.68;;
75437;SDS011;64015;49.392;15.582;2023-12-28T07:20:39;14.98;;;6.50;;
75437;SDS011;64015;49.392;15.582;2023-12-28T07:23:04;14.82;;;6.30;;
75437;SDS011;64015;49.392;15.582;2023-12-28T07:25:30;14.77;;;7.07;;
75437;SDS011;64015;49.392;15.582;2023-12-28T07:28:34;20.60;;;7.28;;
75437;SDS011;64015;49.392;15.582;2023-12-28T07:31:03;17.10;;;6.43;;
75437;SDS011;64015;49.392;15.582;2023-12-28T07:33:38;14.32;;;7.30;;
75437;SDS011;64015;49.392;15.582;2023-12-28T07:36:09;13.30;;;6.25;;
75437;SDS011;64015;49.392;15.582;2023-12-28T07:39:12;15.00;;;6.03;;
75437;SDS011;64015;49.392;15.582;2023-12-28T07:41:48;14.13;;;6.63;;
75437;SDS011;64015;49.392;15.582;2023-12-28T07:44:33;13.95;;;6.30;;
75437;SDS011;64015;49.392;15.582;2023-12-28T07:47:02;11.75;;;5.03;;
75437;SDS011;64015;49.392;15.582;2023-12-28T07:52:20;14.27;;;5.85;;
75437;SDS011;64015;49.392;15.582;2023-12-28T07:54:49;13.27;;;5.82;;
75437;SDS011;64015;49.392;15.582;2023-12-28T07:57:30;12.35;;;5.57;;
75437;SDS011;64015;49.392;15.582;2023-12-28T07:59:56;15.85;;;6.43;;
75437;SDS011;64015;49.392;15.582;2023-12-28T08:02:22;14.63;;;5.53;;
75437;SDS011;64015;49.392;15.582;2023-12-28T08:05:16;13.73;;;6.10;;
75437;SDS011;64015;49.392;15.582;2023-12-28T08:07:49;13.85;;;6.38;;
75437;SDS011;64015;49.392;15.582;2023-12-28T08:10:15;13.80;;;6.00;;
75437;SDS011;64015;49.392;15.582;2023-12-28T08:12:44;12.90;;;6.25;;
75437;SDS011;64015;49.392;15.582;2023-12-28T08:15:20;20.58;;;8.48;;
75437;SDS011;64015;49.392;15.582;2023-12-28T08:17:48;15.27;;;5.55;;
75437;SDS011;64015;49.392;15.582;2023-12-28T08:20:16;17.67;;;7.15;;
75437;SDS011;64015;49.392;15.582;2023-12-28T08:22:54;9.30;;;5.00;;
75437;SDS011;64015;49.392;15.582;2023-12-28T08:25:25;11.30;;;5.15;;
75437;SDS011;64015;49.392;15.582;2023-12-28T08:27:52;11.50;;;5.40;;
75437;SDS011;64015;49.392;15.582;2023-12-28T08:33:11;8.65;;;4.38;;
75437;SDS011;64015;49.392;15.582;2023-12-28T08:35:44;10.10;;;5.75;;
75437;SDS011;64015;49.392;15.582;2023-12-28T08:38:22;10.95;;;4.90;;
75437;SDS011;64015;49.392;15.582;2023-12-28T08:40:49;11.15;;;5.30;;
75437;SDS011;64015;49.392;15.582;2023-12-28T08:43:17;11.68;;;5.22;;
75437;SDS011;64015;49.392;15.582;2023-12-28T08:45:47;12.43;;;5.40;;
75437;SDS011;64015;49.392;15.582;2023-12-28T08:48:16;9.32;;;4.88;;
75437;SDS011;64015;49.392;15.582;2023-12-28T08:50:58;10.15;;;4.68;;
75437;SDS011;64015;49.392;15.582;2023-12-28T08:53:23;9.55;;;5.30;;
75437;SDS011;64015;49.392;15.582;2023-12-28T08:55:52;12.93;;;5.38;;
75437;SDS011;64015;49.392;15.582;2023-12-28T08:58:34;8.88;;;5.68;;
75437;SDS011;64015;49.392;15.582;2023-12-28T09:01:03;11.65;;;6.03;;
75437;SDS011;64015;49.392;15.582;2023-12-28T09:03:30;11.43;;;5.55;;
75437;SDS011;64015;49.392;15.582;2023-12-28T09:06:05;10.45;;;5.05;;
75437;SDS011;64015;49.392;15.582;2023-12-28T09:08:36;10.50;;;5.70;;
75437;SDS011;64015;49.392;15.582;2023-12-28T09:11:20;9.93;;;4.88;;
75437;SDS011;64015;49.392;15.582;2023-12-28T09:24:11;11.57;;;6.75;;
75437;SDS011;64015;49.392;15.582;2023-12-28T09:26:37;13.68;;;7.28;;
75437;SDS011;64015;49.392;15.582;2023-12-28T09:29:50;12.43;;;6.45;;
75437;SDS011;64015;49.392;15.582;2023-12-28T09:32:23;10.82;;;5.85;;
75437;SDS011;64015;49.392;15.582;2023-12-28T09:34:51;11.80;;;5.53;;
75437;SDS011;64015;49.392;15.582;2023-12-28T09:37:23;11.85;;;5.90;;
75437;SDS011;64015;49.392;15.582;2023-12-28T09:39:51;8.93;;;4.97;;
75437;SDS011;64015;49.392;15.582;2023-12-28T09:42:39;12.27;;;5.57;;
75437;SDS011;64015;49.392;15.582;2023-12-28T09:45:22;10.18;;;4.88;;
75437;SDS011;64015;49.392;15.582;2023-12-28T09:47:56;8.98;;;5.10;;
75437;SDS011;64015;49.392;15.582;2023-12-28T09:50:22;7.78;;;4.82;;
75437;SDS011;64015;49.392;15.582;2023-12-28T09:53:05;7.47;;;4.07;;
75437;SDS011;64015;49.392;15.582;2023-12-28T09:55:31;8.15;;;5.15;;
75437;SDS011;64015;49.392;15.582;2023-12-28T09:58:03;12.48;;;6.68;;
75437;SDS011;64015;49.392;15.582;2023-12-28T10:00:31;11.45;;;7.07;;
75437;SDS011;64015;49.392;15.582;2023-12-28T10:02:58;10.80;;;6.93;;
75437;SDS011;64015;49.392;15.582;2023-12-28T10:05:23;10.65;;;6.68;;
75437;SDS011;64015;49.392;15.582;2023-12-28T10:07:55;10.57;;;5.93;;
75437;SDS011;64015;49.392;15.582;2023-12-28T10:10:22;10.93;;;6.15;;
75437;SDS011;64015;49.392;15.582;2023-12-28T10:12:51;10.95;;;7.05;;
75437;SDS011;64015;49.392;15.582;2023-12-28T10:15:23;9.80;;;5.60;;
75437;SDS011;64015;49.392;15.582;2023-12-28T10:17:59;11.32;;;7.00;;
75437;SDS011;64015;49.392;15.582;2023-12-28T10:20:28;10.15;;;5.75;;
75437;SDS011;64015;49.392;15.582;2023-12-28T10:22:55;10.60;;;6.60;;
75437;SDS011;64015;49.392;15.582;2023-12-28T10:25:21;10.10;;;5.38;;
75437;SDS011;64015;49.392;15.582;2023-12-28T10:27:50;8.60;;;4.90;;
75437;SDS011;64015;49.392;15.582;2023-12-28T10:30:29;9.27;;;5.55;;
75437;SDS011;64015;49.392;15.582;2023-12-28T10:32:55;7.72;;;4.90;;
75437;SDS011;64015;49.392;15.582;2023-12-28T10:35:21;8.23;;;5.13;;
75437;SDS011;64015;49.392;15.582;2023-12-28T10:37:53;8.23;;;4.57;;
75437;SDS011;64015;49.392;15.582;2023-12-28T10:40:29;7.65;;;4.57;;
75437;SDS011;64015;49.392;15.582;2023-12-28T10:42:58;10.40;;;5.80;;
75437;SDS011;64015;49.392;15.582;2023-12-28T10:45:26;9.38;;;7.15;;
75437;SDS011;64015;49.392;15.582;2023-12-28T10:48:12;9.55;;;6.15;;
75437;SDS011;64015;49.392;15.582;2023-12-28T10:50:39;12.10;;;7.35;;
75437;SDS011;64015;49.392;15.582;2023-12-28T10:53:14;12.80;;;8.57;;
75437;SDS011;64015;49.392;15.582;2023-12-28T11:01:33;7.97;;;5.72;;
75437;SDS011;64015;49.392;15.582;2023-12-28T11:07:15;8.38;;;5.75;;
75437;SDS011;64015;49.392;15.582;2023-12-28T11:09:50;8.27;;;5.43;;
75437;SDS011;64015;49.392;15.582;2023-12-28T11:16:01;9.30;;;6.30;;
75437;SDS011;64015;49.392;15.582;2023-12-28T11:21:39;9.85;;;5.45;;
75437;SDS011;64015;49.392;15.582;2023-12-28T11:24:05;8.93;;;5.35;;
75437;SDS011;64015;49.392;15.582;2023-12-28T11:26:54;9.35;;;5.93;;
75437;SDS011;64015;49.392;15.582;2023-12-28T11:29:21;8.50;;;5.75;;
75437;SDS011;64015;49.392;15.582;2023-12-28T11:34:30;8.77;;;6.45;;
75437;SDS011;64015;49.392;15.582;2023-12-28T11:36:57;10.80;;;7.25;;
75437;SDS011;64015;49.392;15.582;2023-12-28T11:39:35;8.23;;;5.47;;
75437;SDS011;64015;49.392;15.582;2023-12-28T11:42:07;8.50;;;6.38;;
75437;SDS011;64015;49.392;15.582;2023-12-28T11:44:38;10.45;;;6.75;;
75437;SDS011;64015;49.392;15.582;2023-12-28T11:47:13;8.13;;;5.78;;
75437;SDS011;64015;49.392;15.582;2023-12-28T11:50:06;8.55;;;4.95;;
75437;SDS011;64015;49.392;15.582;2023-12-28T11:52:32;7.28;;;4.72;;
75437;SDS011;64015;49.392;15.582;2023-12-28T11:55:00;7.07;;;4.18;;
75437;SDS011;64015;49.392;15.582;2023-12-28T11:57:26;4.20;;;2.67;;
75437;SDS011;64015;49.392;15.582;2023-12-28T11:59:53;4.95;;;2.45;;
75437;SDS011;64015;49.392;15.582;2023-12-28T12:02:26;3.20;;;2.03;;
75437;SDS011;64015;49.392;15.582;2023-12-28T12:04:56;3.67;;;2.22;;
75437;SDS011;64015;49.392;15.582;2023-12-28T12:07:50;3.00;;;1.63;;
75437;SDS011;64015;49.392;15.582;2023-12-28T12:10:22;2.72;;;1.63;;
75437;SDS011;64015;49.392;15.582;2023-12-28T12:12:51;4.60;;;2.38;;
75437;SDS011;64015;49.392;15.582;2023-12-28T12:15:18;6.10;;;3.25;;
75437;SDS011;64015;49.392;15.582;2023-12-28T12:17:44;6.10;;;2.72;;
75437;SDS011;64015;49.392;15.582;2023-12-28T12:20:10;5.53;;;2.63;;
75437;SDS011;64015;49.392;15.582;2023-12-28T12:22:36;4.55;;;1.63;;
75437;SDS011;64015;49.392;15.582;2023-12-28T12:25:03;5.38;;;2.97;;
75437;SDS011;64015;49.392;15.582;2023-12-28T12:27:36;4.53;;;2.13;;
75437;SDS011;64015;49.392;15.582;2023-12-28T12:30:06;5.82;;;2.88;;
75437;SDS011;64015;49.392;15.582;2023-12-28T12:32:32;7.53;;;2.42;;
75437;SDS011;64015;49.392;15.582;2023-12-28T12:35:05;4.30;;;1.88;;
75437;SDS011;64015;49.392;15.582;2023-12-28T12:37:32;5.78;;;2.42;;
75437;SDS011;64015;49.392;15.582;2023-12-28T12:39:58;4.15;;;1.88;;
75437;SDS011;64015;49.392;15.582;2023-12-28T12:42:33;3.75;;;2.63;;
75437;SDS011;64015;49.392;15.582;2023-12-28T12:45:03;3.72;;;2.10;;
75437;SDS011;64015;49.392;15.582;2023-12-28T12:47:32;3.63;;;2.15;;
75437;SDS011;64015;49.392;15.582;2023-12-28T12:50:02;3.55;;;1.70;;
75437;SDS011;64015;49.392;15.582;2023-12-28T12:56:09;4.32;;;1.83;;
75437;SDS011;64015;49.392;15.582;2023-12-28T12:58:41;3.08;;;1.45;;
75437;SDS011;64015;49.392;15.582;2023-12-28T13:01:09;4.45;;;1.65;;
75437;SDS011;64015;49.392;15.582;2023-12-28T13:03:37;4.80;;;1.58;;
75437;SDS011;64015;49.392;15.582;2023-12-28T13:06:13;3.97;;;1.92;;
75437;SDS011;64015;49.392;15.582;2023-12-28T13:08:42;3.63;;;1.50;;
75437;SDS011;64015;49.392;15.582;2023-12-28T13:11:13;5.50;;;2.85;;
75437;SDS011;64015;49.392;15.582;2023-12-28T13:13:39;5.65;;;3.38;;
75437;SDS011;64015;49.392;15.582;2023-12-28T13:16:05;8.25;;;4.13;;
75437;SDS011;64015;49.392;15.582;2023-12-28T13:18:31;4.30;;;2.90;;
75437;SDS011;64015;49.392;15.582;2023-12-28T13:21:03;5.68;;;2.20;;
75437;SDS011;64015;49.392;15.582;2023-12-28T13:23:42;2.85;;;2.33;;
75437;SDS011;64015;49.392;15.582;2023-12-28T13:26:07;2.42;;;1.70;;
75437;SDS011;64015;49.392;15.582;2023-12-28T13:28:33;3.90;;;2.05;;
75437;SDS011;64015;49.392;15.582;2023-12-28T13:30:59;5.20;;;2.08;;
75437;SDS011;64015;49.392;15.582;2023-12-28T13:33:25;5.78;;;2.47;;
75437;SDS011;64015;49.392;15.582;2023-12-28T13:35:50;3.83;;;1.95;;
75437;SDS011;64015;49.392;15.582;2023-12-28T13:38:26;4.10;;;1.88;;
75437;SDS011;64015;49.392;15.582;2023-12-28T13:40:52;4.80;;;2.08;;
75437;SDS011;64015;49.392;15.582;2023-12-28T13:43:18;4.88;;;2.88;;
75437;SDS011;64015;49.392;15.582;2023-12-28T13:45:44;5.82;;;2.90;;
75437;SDS011;64015;49.392;15.582;2023-12-28T13:48:17;4.85;;;2.33;;
75437;SDS011;64015;49.392;15.582;2023-12-28T13:50:54;6.10;;;3.70;;
75437;SDS011;64015;49.392;15.582;2023-12-28T13:53:21;5.00;;;3.33;;
75437;SDS011;64015;49.392;15.582;2023-12-28T13:55:47;9.98;;;6.45;;
75437;SDS011;64015;49.392;15.582;2023-12-28T13:58:13;41.72;;;23.27;;
75437;SDS011;64015;49.392;15.582;2023-12-28T14:00:42;6.22;;;3.42;;
75437;SDS011;64015;49.392;15.582;2023-12-28T14:03:08;7.65;;;3.38;;
75437;SDS011;64015;49.392;15.582;2023-12-28T14:05:39;6.95;;;3.55;;
75437;SDS011;64015;49.392;15.582;2023-12-28T14:08:05;10.45;;;4.30;;
75437;SDS011;64015;49.392;15.582;2023-12-28T14:10:49;36.28;;;15.63;;
75437;SDS011;64015;49.392;15.582;2023-12-28T14:13:31;45.08;;;17.13;;
75437;SDS011;64015;49.392;15.582;2023-12-28T14:15:58;24.17;;;9.90;;
75437;SDS011;64015;49.392;15.582;2023-12-28T14:18:24;23.08;;;8.68;;
75437;SDS011;64015;49.392;15.582;2023-12-28T14:20:50;11.38;;;4.97;;
75437;SDS011;64015;49.392;15.582;2023-12-28T14:23:16;14.20;;;6.90;;
75437;SDS011;64015;49.392;15.582;2023-12-28T14:25:43;19.90;;;9.18;;
75437;SDS011;64015;49.392;15.582;2023-12-28T14:28:09;16.08;;;8.45;;
75437;SDS011;64015;49.392;15.582;2023-12-28T14:30:35;10.88;;;6.72;;
75437;SDS011;64015;49.392;15.582;2023-12-28T14:33:01;11.77;;;6.05;;
75437;SDS011;64015;49.392;15.582;2023-12-28T14:35:27;6.72;;;2.72;;
75437;SDS011;64015;49.392;15.582;2023-12-28T14:37:53;9.10;;;3.80;;
75437;SDS011;64015;49.392;15.582;2023-12-28T14:40:19;8.98;;;3.67;;
75437;SDS011;64015;49.392;15.582;2023-12-28T14:42:45;7.35;;;3.00;;
75437;SDS011;64015;49.392;15.582;2023-12-28T14:45:11;9.70;;;3.80;;
75437;SDS011;64015;49.392;15.582;2023-12-28T14:47:37;17.05;;;8.93;;
75437;SDS011;64015;49.392;15.582;2023-12-28T14:50:02;13.55;;;6.40;;
75437;SDS011;64015;49.392;15.582;2023-12-28T14:52:33;13.05;;;6.03;;
75437;SDS011;64015;49.392;15.582;2023-12-28T14:54:59;11.00;;;6.63;;
75437;SDS011;64015;49.392;15.582;2023-12-28T14:57:26;21.45;;;8.30;;
75437;SDS011;64015;49.392;15.582;2023-12-28T14:59:51;7.13;;;3.42;;
75437;SDS011;64015;49.392;15.582;2023-12-28T15:02:17;5.68;;;2.95;;
75437;SDS011;64015;49.392;15.582;2023-12-28T15:04:44;14.65;;;6.85;;
75437;SDS011;64015;49.392;15.582;2023-12-28T15:07:10;5.43;;;2.80;;
75437;SDS011;64015;49.392;15.582;2023-12-28T15:09:42;5.45;;;2.78;;
75437;SDS011;64015;49.392;15.582;2023-12-28T15:12:08;5.05;;;2.45;;
75437;SDS011;64015;49.392;15.582;2023-12-28T15:14:33;7.65;;;3.55;;
75437;SDS011;64015;49.392;15.582;2023-12-28T15:17:06;10.18;;;4.13;;
75437;SDS011;64015;49.392;15.582;2023-12-28T15:19:32;6.85;;;3.35;;
75437;SDS011;64015;49.392;15.582;2023-12-28T15:21:58;15.15;;;6.45;;
75437;SDS011;64015;49.392;15.582;2023-12-28T15:24:24;15.07;;;6.97;;
75437;SDS011;64015;49.392;15.582;2023-12-28T15:26:53;14.13;;;6.32;;
75437;SDS011;64015;49.392;15.582;2023-12-28T15:29:19;14.27;;;6.75;;
75437;SDS011;64015;49.392;15.582;2023-12-28T15:31:45;25.27;;;10.13;;
75437;SDS011;64015;49.392;15.582;2023-12-28T15:34:10;71.65;;;26.83;;
75437;SDS011;64015;49.392;15.582;2023-12-28T15:36:36;39.67;;;14.93;;
75437;SDS011;64015;49.392;15.582;2023-12-28T15:39:04;45.45;;;20.02;;
75437;SDS011;64015;49.392;15.582;2023-12-28T15:41:31;36.05;;;15.93;;
75437;SDS011;64015;49.392;15.582;2023-12-28T15:47:38;34.58;;;17.45;;
75437;SDS011;64015;49.392;15.582;2023-12-28T15:50:04;21.35;;;10.45;;
75437;SDS011;64015;49.392;15.582;2023-12-28T15:52:39;20.65;;;10.32;;
75437;SDS011;64015;49.392;15.582;2023-12-28T15:55:17;26.65;;;14.63;;
75437;SDS011;64015;49.392;15.582;2023-12-28T15:57:43;21.27;;;9.98;;
75437;SDS011;64015;49.392;15.582;2023-12-28T16:00:10;20.85;;;11.15;;
75437;SDS011;64015;49.392;15.582;2023-12-28T16:02:42;24.10;;;12.02;;
75437;SDS011;64015;49.392;15.582;2023-12-28T16:05:08;25.08;;;12.65;;
75437;SDS011;64015;49.392;15.582;2023-12-28T16:07:34;38.10;;;16.15;;
75437;SDS011;64015;49.392;15.582;2023-12-28T16:10:00;13.60;;;6.80;;
75437;SDS011;64015;49.392;15.582;2023-12-28T16:22:25;8.15;;;3.92;;
75437;SDS011;64015;49.392;15.582;2023-12-28T16:24:56;7.47;;;3.70;;
75437;SDS011;64015;49.392;15.582;2023-12-28T16:27:38;10.73;;;6.55;;
75437;SDS011;64015;49.392;15.582;2023-12-28T16:30:04;13.40;;;10.00;;
75437;SDS011;64015;49.392;15.582;2023-12-28T16:32:34;11.93;;;7.93;;
75437;SDS011;64015;49.392;15.582;2023-12-28T16:35:05;23.10;;;13.18;;
75437;SDS011;64015;49.392;15.582;2023-12-28T16:37:57;17.63;;;9.07;;
75437;SDS011;64015;49.392;15.582;2023-12-28T16:40:52;15.23;;;8.60;;
75437;SDS011;64015;49.392;15.582;2023-12-28T16:43:38;16.00;;;8.38;;
75437;SDS011;64015;49.392;15.582;2023-12-28T16:46:04;14.32;;;9.43;;
75437;SDS011;64015;49.392;15.582;2023-12-28T16:54:42;22.33;;;12.10;;
75437;SDS011;64015;49.392;15.582;2023-12-28T16:57:46;40.25;;;23.80;;
75437;SDS011;64015;49.392;15.582;2023-12-28T17:02:53;36.88;;;23.50;;
75437;SDS011;64015;49.392;15.582;2023-12-28T17:05:19;33.75;;;18.13;;
75437;SDS011;64015;49.392;15.582;2023-12-28T17:07:59;35.78;;;20.52;;
75437;SDS011;64015;49.392;15.582;2023-12-28T17:10:28;28.60;;;15.30;;
75437;SDS011;64015;49.392;15.582;2023-12-28T17:12:56;19.35;;;10.55;;
75437;SDS011;64015;49.392;15.582;2023-12-28T17:18:47;29.40;;;12.02;;
75437;SDS011;64015;49.392;15.582;2023-12-28T17:21:24;28.38;;;14.25;;
75437;SDS011;64015;49.392;15.582;2023-12-28T17:27:34;26.95;;;15.23;;
75437;SDS011;64015;49.392;15.582;2023-12-28T17:30:04;15.70;;;9.65;;
75437;SDS011;64015;49.392;15.582;2023-12-28T17:32:32;11.70;;;6.70;;
75437;SDS011;64015;49.392;15.582;2023-12-28T17:35:01;17.38;;;8.65;;
75437;SDS011;64015;49.392;15.582;2023-12-28T17:37:30;9.75;;;4.75;;
75437;SDS011;64015;49.392;15.582;2023-12-28T17:40:15;8.60;;;4.75;;
75437;SDS011;64015;49.392;15.582;2023-12-28T17:43:00;9.30;;;5.18;;
75437;SDS011;64015;49.392;15.582;2023-12-28T17:46:14;5.43;;;2.60;;
75437;SDS011;64015;49.392;15.582;2023-12-28T17:48:48;6.07;;;2.67;;
75437;SDS011;64015;49.392;15.582;2023-12-28T17:51:18;12.05;;;6.15;;
75437;SDS011;64015;49.392;15.582;2023-12-28T17:53:55;7.18;;;3.17;;
75437;SDS011;64015;49.392;15.582;2023-12-28T17:56:27;5.50;;;2.85;;